KIWD Weather

FAA AWOS (Automated Weather Observing System)

Weather observations for the last 3 days click here.

KIWD

METAR
KIWD 241856Z AUTO 19012G16KT 10SM CLR 17/01 A2979 RMK AO2 SLP094 T01670006
KIWD 241756Z AUTO 17009G15KT 10SM CLR 14/01 A2983 RMK AO2 SLP110 T01390006 10139 20011 58023
TAF
KIWD 241727Z 2418/2518 16012KT P6SM BKN250 FM250300 16009KT P6SM BKN090 WS010/18035KT FM251200 17010KT P6SM OVC070